Time;durP1;ratioP1;P1;durP2;ratioP2;P2;SDS_P1;SDS_P2;PMS_P1;PMS_P2;Temp;Humidity;BMP_temperature;BMP_pressure;BME280_temperature;BME280_humidity;BME280_pressure;Samples;Min_cycle;Max_cycle;Signal;HPM_P1;HPM_P2
2023/09/04 00:01:04;;;;;;;5.40;2.42;;;;;;;28.59;40.13;96938.69;5088914;28;20026;-27
2023/09/04 00:03:29;;;;;;;5.47;2.83;;;;;;;28.45;40.40;96933.63;5082311;28;20100;-27
2023/09/04 00:05:55;;;;;;;4.63;2.60;;;;;;;28.53;40.16;96932.47;5081737;28;20508;-27
2023/09/04 00:08:21;;;;;;;5.97;2.90;;;;;;;28.54;40.50;96928.38;5081603;28;20021;-25
2023/09/04 00:10:47;;;;;;;5.85;2.50;;;;;;;28.37;40.71;96927.16;5082083;28;20023;-27
2023/09/04 00:13:13;;;;;;;4.20;2.70;;;;;;;28.50;40.46;96927.94;5081273;28;20435;-27
2023/09/04 00:15:39;;;;;;;3.53;2.90;;;;;;;28.29;40.57;96917.94;5077894;28;20035;-27
2023/09/04 00:18:05;;;;;;;4.57;2.80;;;;;;;28.38;40.60;96920.31;5077702;28;20028;-27
2023/09/04 00:20:31;;;;;;;4.50;2.85;;;;;;;28.51;40.71;96920.31;5081841;28;20025;-26
2023/09/04 00:22:56;;;;;;;3.92;2.70;;;;;;;28.45;40.52;96914.09;5078743;28;20093;-27
2023/09/04 00:25:22;;;;;;;5.95;3.10;;;;;;;28.37;40.57;96913.22;5083552;28;20024;-26
2023/09/04 00:27:48;;;;;;;5.88;3.42;;;;;;;28.29;40.83;96907.53;5073750;28;20048;-27
2023/09/04 00:30:13;;;;;;;5.90;3.08;;;;;;;28.33;40.92;96910.00;5081353;28;20021;-27
2023/09/04 00:32:39;;;;;;;7.60;3.28;;;;;;;28.30;40.68;96908.28;5081873;28;20024;-27
2023/09/04 00:35:05;;;;;;;5.13;2.75;;;;;;;28.44;40.62;96907.00;5078483;28;20027;-28
2023/09/04 00:37:31;;;;;;;4.32;3.10;;;;;;;28.40;40.30;96912.16;5075934;28;20051;-26
2023/09/04 00:39:56;;;;;;;6.35;3.10;;;;;;;28.36;40.72;96918.06;5088457;28;20068;-26
2023/09/04 00:42:22;;;;;;;8.32;3.35;;;;;;;28.44;40.23;96910.53;5086934;28;20016;-27
2023/09/04 00:44:50;;;;;;;6.40;3.15;;;;;;;28.46;40.36;96910.00;5075332;28;20055;-27
2023/09/04 00:47:22;;;;;;;5.30;2.97;;;;;;;28.30;40.30;96905.50;5081779;28;20024;-27
2023/09/04 00:49:48;;;;;;;7.00;2.90;;;;;;;28.41;40.30;96903.25;5088155;28;20058;-27
2023/09/04 00:52:14;;;;;;;6.35;2.88;;;;;;;28.42;40.17;96901.97;5083123;28;20085;-27
2023/09/04 00:54:41;;;;;;;3.80;2.70;;;;;;;28.39;40.26;96903.03;5077125;28;20012;-27
2023/09/04 00:57:09;;;;;;;4.28;2.90;;;;;;;28.36;40.11;96900.56;5081291;28;20067;-27
2023/09/04 00:59:35;;;;;;;7.20;3.15;;;;;;;28.28;40.38;96900.44;5078663;28;20020;-28
2023/09/04 01:02:01;;;;;;;4.90;3.00;;;;;;;28.32;40.56;96903.66;5082872;28;20020;-27
2023/09/04 01:04:27;;;;;;;5.35;3.05;;;;;;;28.53;39.88;96901.75;5076692;28;20072;-27
2023/09/04 01:06:55;;;;;;;3.85;2.83;;;;;;;28.44;40.02;96901.41;5083798;28;20492;-27
2023/09/04 01:09:21;;;;;;;3.45;2.70;;;;;;;28.25;40.32;96907.09;5075257;28;20020;-27
2023/09/04 01:11:55;;;;;;;2.95;2.63;;;;;;;28.38;39.66;96898.75;5084224;28;20098;-27
2023/09/04 01:14:23;;;;;;;7.32;3.08;;;;;;;28.39;39.71;96905.81;5075643;28;20032;-26
2023/09/04 01:16:49;;;;;;;4.70;2.83;;;;;;;28.47;39.66;96900.34;5083349;28;20020;-26
2023/09/04 01:19:17;;;;;;;6.15;2.80;;;;;;;28.35;40.00;96907.41;5075024;28;20032;-27
2023/09/04 01:21:43;;;;;;;4.78;2.90;;;;;;;28.28;40.13;96900.44;5080553;28;20046;-26
2023/09/04 01:24:09;;;;;;;4.20;2.92;;;;;;;28.34;40.04;96905.91;5087278;28;20024;-29
2023/09/04 01:27:03;;;;;;;3.65;2.60;;;;;;;28.39;39.90;96900.25;5081585;28;20544;-26
2023/09/04 01:29:32;;;;;;;4.63;3.03;;;;;;;28.13;40.36;96902.97;5071309;28;20044;-26
2023/09/04 01:32:09;;;;;;;3.67;2.60;;;;;;;28.32;39.86;96897.31;5078110;28;20016;-26
2023/09/04 01:34:44;;;;;;;4.45;2.90;;;;;;;28.28;40.36;96894.13;5080818;28;20024;-27
2023/09/04 01:37:11;;;;;;;6.65;3.55;;;;;;;28.31;40.27;96890.28;5078487;28;20020;-27
2023/09/04 01:39:38;;;;;;;4.43;3.10;;;;;;;28.34;40.18;96891.97;5080744;28;20032;-27
2023/09/04 01:42:03;;;;;;;3.22;2.78;;;;;;;28.26;40.26;96885.53;5083333;28;20442;-26
2023/09/04 01:44:30;;;;;;;5.95;3.00;;;;;;;28.26;40.59;96874.38;5076859;28;20055;-26
2023/09/04 01:46:55;;;;;;;5.28;3.05;;;;;;;28.10;40.61;96874.09;5080247;28;20024;-27
2023/09/04 01:49:21;;;;;;;6.72;3.67;;;;;;;28.28;40.28;96874.59;5080285;28;20075;-26
2023/09/04 01:51:46;;;;;;;7.30;3.20;;;;;;;28.12;40.39;96873.56;5079664;28;20469;-26
2023/09/04 01:54:12;;;;;;;6.45;3.25;;;;;;;28.01;40.85;96871.72;5080618;28;20021;-26
2023/09/04 01:56:38;;;;;;;4.90;3.00;;;;;;;28.28;40.50;96877.38;5072946;28;20096;-27
2023/09/04 01:59:03;;;;;;;6.40;3.28;;;;;;;28.15;40.86;96883.66;5080641;28;20128;-26
2023/09/04 02:01:29;;;;;;;2.97;2.63;;;;;;;28.23;40.61;96882.53;5086652;28;20474;-26
2023/09/04 02:03:56;;;;;;;5.68;2.92;;;;;;;28.31;40.26;96885.44;5073732;28;20016;-26
2023/09/04 02:06:23;;;;;;;4.65;2.83;;;;;;;28.18;40.50;96877.81;5084205;28;20073;-27
2023/09/04 02:08:49;;;;;;;4.70;2.92;;;;;;;28.30;40.35;96881.16;5090108;28;20023;-27
2023/09/04 02:11:14;;;;;;;7.18;3.03;;;;;;;28.21;40.78;96878.75;5085110;28;20028;-27
2023/09/04 02:13:40;;;;;;;8.88;2.83;;;;;;;27.99;40.75;96868.72;5074987;28;20050;-26
2023/09/04 02:16:05;;;;;;;3.38;2.55;;;;;;;28.15;40.71;96870.47;5084066;28;20469;-27
2023/09/04 02:18:31;;;;;;;8.55;3.33;;;;;;;28.06;40.95;96868.09;5083782;28;20028;-26
2023/09/04 02:20:57;;;;;;;5.43;2.50;;;;;;;28.23;40.88;96863.00;5081517;28;20024;-27
2023/09/04 02:23:22;;;;;;;4.80;3.20;;;;;;;28.00;40.91;96858.31;5078564;28;20056;-27
2023/09/04 02:25:48;;;;;;;4.05;2.80;;;;;;;27.85;41.29;96859.56;5086607;28;20452;-26
2023/09/04 02:28:15;;;;;;;4.25;2.95;;;;;;;28.04;41.16;96853.94;5087129;28;20074;-28
2023/09/04 02:30:40;;;;;;;3.70;2.92;;;;;;;28.18;40.46;96858.28;5083798;28;20097;-27
2023/09/04 02:33:06;;;;;;;3.65;2.63;;;;;;;28.09;40.85;96861.44;5075975;28;20025;-27
2023/09/04 02:35:32;;;;;;;5.45;3.08;;;;;;;28.12;40.38;96870.78;5083850;28;20024;-27
2023/09/04 02:37:57;;;;;;;4.28;2.50;;;;;;;28.22;40.28;96860.75;5094572;28;20028;-27
2023/09/04 02:40:22;;;;;;;4.07;2.33;;;;;;;28.14;40.50;96868.97;5080162;28;20044;-26
2023/09/04 02:42:48;;;;;;;4.07;2.50;;;;;;;27.98;41.06;96855.31;5090469;28;20016;-26
2023/09/04 02:45:13;;;;;;;4.80;2.60;;;;;;;28.23;40.48;96851.84;5075651;28;20027;-26
2023/09/04 02:47:39;;;;;;;4.72;2.70;;;;;;;28.09;40.34;96850.28;5075728;28;20086;-28
2023/09/04 02:50:06;;;;;;;4.15;2.92;;;;;;;28.03;40.32;96846.13;5083570;28;20068;-27
2023/09/04 02:52:31;;;;;;;4.78;2.83;;;;;;;28.07;40.52;96847.28;5086565;28;20028;-27
2023/09/04 02:54:57;;;;;;;3.28;2.60;;;;;;;28.19;40.15;96843.03;5083464;28;20080;-27
2023/09/04 02:57:23;;;;;;;4.30;3.03;;;;;;;27.98;40.35;96844.91;5086499;28;20031;-27
2023/09/04 02:59:49;;;;;;;4.43;2.85;;;;;;;28.12;40.42;96849.22;5078617;28;20020;-27
2023/09/04 03:02:14;;;;;;;3.63;2.65;;;;;;;28.08;40.04;96845.25;5083098;28;20454;-26
2023/09/04 03:04:40;;;;;;;4.05;3.08;;;;;;;28.03;40.01;96851.69;5080772;28;20020;-26
2023/09/04 03:07:06;;;;;;;2.58;2.38;;;;;;;28.06;40.20;96845.06;5085514;28;20045;-27
2023/09/04 03:09:31;;;;;;;3.63;2.60;;;;;;;28.00;40.28;96847.91;5079268;28;20021;-26
2023/09/04 03:11:58;;;;;;;2.63;2.42;;;;;;;27.98;40.09;96844.91;5085984;28;20038;-27
2023/09/04 03:14:24;;;;;;;3.78;2.35;;;;;;;27.96;40.07;96847.47;5076930;28;20030;-26
2023/09/04 03:16:49;;;;;;;6.53;3.08;;;;;;;28.02;40.10;96845.34;5086062;28;20020;-27
2023/09/04 03:19:14;;;;;;;4.25;2.90;;;;;;;28.04;40.35;96848.38;5076469;28;20017;-26
2023/09/04 03:21:40;;;;;;;4.97;2.60;;;;;;;27.96;40.39;96849.50;5082478;28;20022;-26
2023/09/04 03:24:06;;;;;;;4.25;2.70;;;;;;;28.07;40.14;96838.91;5082442;28;20036;-27
2023/09/04 03:26:31;;;;;;;3.53;2.30;;;;;;;27.96;40.20;96846.72;5082449;28;20031;-26
2023/09/04 03:28:57;;;;;;;3.28;2.30;;;;;;;27.92;40.38;96847.06;5082740;28;20466;-26
2023/09/04 03:31:22;;;;;;;3.33;2.50;;;;;;;28.06;40.06;96851.38;5081957;28;20474;-26
2023/09/04 03:33:47;;;;;;;4.10;2.55;;;;;;;27.80;40.95;96842.97;5085351;28;20022;-28
2023/09/04 03:36:13;;;;;;;6.63;2.42;;;;;;;28.02;40.38;96847.41;5085732;28;20026;-27
2023/09/04 03:38:39;;;;;;;4.95;2.60;;;;;;;27.81;40.66;96841.69;5084288;28;20104;-27
2023/09/04 03:41:05;;;;;;;3.10;2.50;;;;;;;27.75;41.25;96838.22;5085316;28;20040;-28
2023/09/04 03:43:31;;;;;;;6.38;2.95;;;;;;;27.88;41.14;96841.03;5085499;28;20070;-27
2023/09/04 03:45:56;;;;;;;4.28;2.28;;;;;;;27.99;40.76;96832.47;5082051;28;20051;-28
2023/09/04 03:48:22;;;;;;;2.75;2.30;;;;;;;27.84;40.98;96832.97;5073759;28;20462;-29
2023/09/04 03:50:47;;;;;;;5.63;2.75;;;;;;;27.81;41.13;96833.31;5080573;28;20028;-28
2023/09/04 03:53:13;;;;;;;4.88;2.65;;;;;;;27.93;40.62;96826.25;5085417;28;20144;-27
2023/09/04 03:55:39;;;;;;;4.93;2.80;;;;;;;27.65;41.77;96831.56;5078765;28;20020;-27
2023/09/04 03:58:04;;;;;;;4.60;2.92;;;;;;;27.77;41.59;96830.84;5082275;28;20024;-27
2023/09/04 04:00:30;;;;;;;6.22;3.17;;;;;;;27.80;41.44;96827.00;5081646;28;20462;-27
2023/09/04 04:02:56;;;;;;;5.22;3.10;;;;;;;27.76;41.32;96834.16;5082104;28;20038;-27
2023/09/04 04:05:24;;;;;;;5.50;2.50;;;;;;;27.76;41.24;96839.72;5081524;28;20017;-28
2023/09/04 04:07:50;;;;;;;3.30;2.50;;;;;;;27.66;41.70;96838.63;5081541;28;20401;-28
2023/09/04 04:10:19;;;;;;;5.45;2.50;;;;;;;27.70;41.44;96841.84;5081275;28;20028;-27
2023/09/04 04:12:44;;;;;;;4.15;2.45;;;;;;;27.68;41.96;96836.81;5079715;28;20016;-27
2023/09/04 04:15:11;;;;;;;5.95;2.40;;;;;;;27.83;41.57;96841.88;5084083;28;20067;-27
2023/09/04 04:17:37;;;;;;;5.40;2.53;;;;;;;27.94;41.57;96844.50;5081324;28;20074;-27
2023/09/04 04:20:10;;;;;;;3.65;2.90;;;;;;;27.71;41.82;96834.97;5080633;28;20028;-27
2023/09/04 04:22:36;;;;;;;3.90;2.50;;;;;;;27.84;41.73;96840.59;5075219;28;20035;-27
2023/09/04 04:25:01;;;;;;;4.85;2.42;;;;;;;27.75;41.61;96835.44;5077213;28;20062;-27
2023/09/04 04:27:26;;;;;;;3.92;2.50;;;;;;;27.67;42.32;96829.75;5088221;28;20024;-27
2023/09/04 04:29:54;;;;;;;4.93;2.60;;;;;;;27.74;41.73;96831.13;5081019;28;20017;-27
2023/09/04 04:32:20;;;;;;;7.35;3.03;;;;;;;27.68;42.23;96833.28;5081470;28;20031;-27
2023/09/04 04:34:45;;;;;;;5.47;2.60;;;;;;;27.67;42.12;96834.56;5080713;28;20020;-27
2023/09/04 04:37:11;;;;;;;4.90;2.67;;;;;;;27.75;41.49;96819.47;5086178;28;20028;-27
2023/09/04 04:39:37;;;;;;;7.05;2.83;;;;;;;27.73;41.80;96818.47;5075226;28;20111;-29
2023/09/04 04:42:02;;;;;;;3.13;2.40;;;;;;;27.44;41.90;96817.41;5077624;28;20020;-26
2023/09/04 04:44:28;;;;;;;5.88;2.60;;;;;;;27.54;41.90;96810.91;5077825;28;20017;-27
2023/09/04 04:46:53;;;;;;;6.43;2.88;;;;;;;27.68;41.96;96811.00;5082234;28;20024;-27
2023/09/04 04:49:22;;;;;;;4.20;2.22;;;;;;;27.52;42.09;96807.16;5084226;28;20044;-27
2023/09/04 04:51:51;;;;;;;3.60;2.58;;;;;;;27.61;41.73;96811.59;5075873;28;20074;-27
2023/09/04 04:54:17;;;;;;;2.78;2.20;;;;;;;27.61;42.04;96817.16;5080492;28;20017;-29
2023/09/04 04:56:42;;;;;;;3.20;2.08;;;;;;;27.59;42.10;96819.72;5080976;28;20490;-27
2023/09/04 04:59:08;;;;;;;3.45;2.20;;;;;;;27.74;41.78;96831.13;5080639;28;20724;-27
2023/09/04 05:01:34;;;;;;;4.68;2.22;;;;;;;27.64;41.64;96832.81;5080784;28;20484;-27
2023/09/04 05:04:00;;;;;;;2.30;2.10;;;;;;;27.49;42.51;96845.19;5080902;28;20028;-28
2023/09/04 05:06:25;;;;;;;3.30;2.30;;;;;;;27.51;42.77;96842.63;5084188;28;20031;-27
2023/09/04 05:08:51;;;;;;;3.78;2.30;;;;;;;27.68;42.27;96850.00;5076092;28;20023;-27
2023/09/04 05:11:16;;;;;;;4.20;2.42;;;;;;;27.49;42.42;96853.53;5082293;28;20027;-27
2023/09/04 05:13:42;;;;;;;5.25;2.78;;;;;;;27.40;42.88;96859.50;5079594;28;20466;-27
2023/09/04 05:16:07;;;;;;;5.32;2.40;;;;;;;27.65;42.23;96857.38;5080724;28;20044;-26
2023/09/04 05:18:33;;;;;;;2.97;2.30;;;;;;;27.57;42.41;96866.88;5080456;28;20028;-28
2023/09/04 05:20:59;;;;;;;5.97;2.20;;;;;;;27.67;42.56;96865.22;5080259;28;20073;-27
2023/09/04 05:23:24;;;;;;;4.22;2.40;;;;;;;27.63;42.61;96856.41;5080498;28;20158;-26
2023/09/04 05:25:52;;;;;;;4.00;2.28;;;;;;;27.54;42.77;96857.53;5080546;28;20031;-26
2023/09/04 05:28:17;;;;;;;3.58;2.40;;;;;;;27.60;42.80;96871.38;5080631;28;20036;-27
2023/09/04 05:30:43;;;;;;;2.95;2.05;;;;;;;27.54;42.81;96863.84;5080368;28;20026;-28
2023/09/04 05:33:08;;;;;;;4.32;2.40;;;;;;;27.52;42.75;96874.00;5078231;28;20469;-27
2023/09/04 05:35:34;;;;;;;9.60;2.80;;;;;;;27.65;42.92;96878.91;5081961;28;20020;-27
2023/09/04 05:38:00;;;;;;;3.38;2.30;;;;;;;27.59;42.78;96887.34;5077535;28;20028;-26
2023/09/04 05:40:25;;;;;;;2.50;2.22;;;;;;;27.61;42.89;96884.03;5088693;28;20056;-28
2023/09/04 05:42:51;;;;;;;6.05;2.33;;;;;;;27.55;42.88;96892.47;5086087;28;20381;-26
2023/09/04 05:45:17;;;;;;;3.78;2.42;;;;;;;27.76;42.56;96884.31;5082621;28;20023;-26
2023/09/04 05:47:43;;;;;;;3.88;2.72;;;;;;;27.68;42.65;96894.59;5092043;28;20349;-27
2023/09/04 05:50:09;;;;;;;3.50;2.40;;;;;;;27.70;43.00;96897.56;5077011;28;20025;-27
2023/09/04 05:52:35;;;;;;;4.15;2.58;;;;;;;27.74;42.74;96898.03;5084660;28;20037;-27
2023/09/04 05:55:01;;;;;;;2.95;2.45;;;;;;;27.57;43.31;96903.13;5084682;28;20020;-28
2023/09/04 05:57:26;;;;;;;6.32;2.58;;;;;;;27.75;42.96;96896.75;5084709;28;20024;-26
2023/09/04 05:59:52;;;;;;;4.75;2.55;;;;;;;27.62;43.13;96902.25;5075355;28;20082;-27
2023/09/04 06:02:18;;;;;;;3.95;2.60;;;;;;;27.83;42.68;96900.41;5086938;28;20051;-27
2023/09/04 06:04:43;;;;;;;3.33;2.22;;;;;;;27.64;43.54;96900.44;5085843;28;20027;-26
2023/09/04 06:07:10;;;;;;;2.65;2.20;;;;;;;27.69;43.53;96901.66;5078911;28;20420;-26
2023/09/04 06:09:37;;;;;;;3.65;2.80;;;;;;;27.73;43.29;96907.66;5090855;28;20469;-26
2023/09/04 06:12:04;;;;;;;2.95;2.42;;;;;;;27.62;43.72;96905.03;5084071;28;20082;-29
2023/09/04 06:14:30;;;;;;;4.50;2.17;;;;;;;27.87;43.16;96909.22;5086385;28;20039;-26
2023/09/04 06:16:55;;;;;;;3.03;2.13;;;;;;;27.73;43.38;96905.63;5080955;28;20465;-28
2023/09/04 06:19:21;;;;;;;4.80;3.05;;;;;;;27.65;43.47;96907.53;5091252;28;20073;-27
2023/09/04 06:21:46;;;;;;;2.70;2.40;;;;;;;27.62;43.84;96914.16;5083893;28;20103;-27
2023/09/04 06:24:11;;;;;;;4.38;2.53;;;;;;;27.65;43.69;96915.13;5076717;28;20035;-26
2023/09/04 06:26:37;;;;;;;2.83;2.42;;;;;;;27.86;43.46;96910.50;5075213;28;20016;-27
2023/09/04 06:29:03;;;;;;;3.78;2.40;;;;;;;27.69;43.98;96910.03;5088981;28;20028;-27
2023/09/04 06:31:28;;;;;;;3.78;2.58;;;;;;;27.73;43.70;96911.19;5085321;28;20020;-27
2023/09/04 06:33:55;;;;;;;2.97;2.30;;;;;;;27.75;43.81;96897.50;5086880;28;20020;-27
2023/09/04 06:36:20;;;;;;;4.30;2.35;;;;;;;27.67;43.83;96893.81;5080395;28;20381;-27
2023/09/04 06:38:46;;;;;;;3.55;2.30;;;;;;;27.87;43.63;96898.06;5083524;28;20028;-27
2023/09/04 06:41:11;;;;;;;3.47;2.40;;;;;;;27.88;43.81;96900.31;5080777;28;20040;-27
2023/09/04 06:43:37;;;;;;;3.92;2.20;;;;;;;27.71;44.02;96910.22;5086095;28;20111;-28
2023/09/04 06:46:03;;;;;;;6.50;2.22;;;;;;;27.88;43.70;96902.34;5076475;28;20012;-27
2023/09/04 06:48:29;;;;;;;4.80;2.70;;;;;;;27.82;44.14;96905.22;5082041;28;20020;-27
2023/09/04 06:50:54;;;;;;;3.28;1.88;;;;;;;27.72;44.32;96900.56;5077264;28;20478;-27
2023/09/04 06:53:20;;;;;;;3.47;2.47;;;;;;;27.74;44.35;96900.81;5086537;28;20023;-26
2023/09/04 06:55:49;;;;;;;4.53;2.30;;;;;;;27.82;43.96;96901.69;5086210;28;20028;-28
2023/09/04 06:58:15;;;;;;;2.95;2.10;;;;;;;27.94;43.56;96896.72;5085672;28;20032;-27
2023/09/04 07:00:41;;;;;;;3.55;2.28;;;;;;;28.00;43.50;96900.91;5086722;28;20020;-26
2023/09/04 07:03:06;;;;;;;3.53;2.15;;;;;;;27.93;43.42;96898.75;5076850;28;20094;-27
2023/09/04 07:05:32;;;;;;;4.00;2.30;;;;;;;27.91;44.03;96900.56;5083363;28;20494;-27
2023/09/04 07:07:57;;;;;;;2.95;2.20;;;;;;;27.79;44.24;96899.97;5082580;28;20017;-28
2023/09/04 07:10:23;;;;;;;3.58;2.08;;;;;;;28.07;43.37;96899.50;5084991;28;20369;-27
2023/09/04 07:12:51;;;;;;;2.53;2.10;;;;;;;27.77;44.39;96900.50;5081043;28;20016;-26
2023/09/04 07:15:17;;;;;;;5.10;2.20;;;;;;;27.78;44.26;96904.03;5083026;28;20459;-27
2023/09/04 07:17:42;;;;;;;2.30;2.08;;;;;;;27.87;44.06;96903.63;5082735;28;20041;-27
2023/09/04 07:20:10;;;;;;;4.60;2.33;;;;;;;27.74;44.21;96895.22;5082695;28;20031;-27
2023/09/04 07:22:36;;;;;;;2.88;2.03;;;;;;;27.88;44.05;96891.22;5075452;28;20025;-26
2023/09/04 07:25:03;;;;;;;3.28;1.95;;;;;;;27.80;43.58;96891.09;5082224;28;20044;-28
2023/09/04 07:27:29;;;;;;;3.53;2.17;;;;;;;27.93;43.70;96921.03;5076083;28;20033;-27
2023/09/04 07:29:54;;;;;;;3.55;2.08;;;;;;;27.89;43.20;96901.84;5086168;28;20611;-27
2023/09/04 07:32:20;;;;;;;2.25;1.70;;;;;;;27.83;42.96;96903.19;5078370;28;20130;-27
2023/09/04 07:34:45;;;;;;;2.08;1.50;;;;;;;27.90;43.39;96905.38;5089830;28;20077;-27
2023/09/04 07:37:11;;;;;;;3.38;1.80;;;;;;;27.97;43.33;96899.16;5082309;28;20592;-27
2023/09/04 07:39:36;;;;;;;2.55;1.73;;;;;;;28.03;42.85;96905.41;5081691;28;20385;-27
2023/09/04 07:42:02;;;;;;;1.98;1.30;;;;;;;27.85;42.80;96897.84;5082662;28;20069;-26
2023/09/04 07:44:27;;;;;;;3.83;2.08;;;;;;;28.16;42.16;96913.81;5088998;28;20023;-27
2023/09/04 07:46:53;;;;;;;3.03;2.10;;;;;;;27.79;42.54;96900.72;5083051;28;20457;-26
2023/09/04 07:49:18;;;;;;;2.10;1.80;;;;;;;27.87;42.46;96898.06;5082092;28;20031;-27
2023/09/04 07:51:44;;;;;;;2.00;1.58;;;;;;;27.94;42.23;96896.72;5082210;28;20051;-27
2023/09/04 07:54:11;;;;;;;4.00;1.80;;;;;;;27.92;41.77;96897.22;5081952;28;20024;-27
2023/09/04 07:56:37;;;;;;;4.82;1.65;;;;;;;28.01;41.87;96898.84;5081158;28;20020;-27
2023/09/04 07:59:03;;;;;;;2.85;1.60;;;;;;;27.91;41.45;96908.91;5077028;28;20109;-26
2023/09/04 08:01:30;;;;;;;4.10;1.90;;;;;;;28.04;40.53;96898.56;5084673;28;20499;-27
2023/09/04 08:03:56;;;;;;;2.60;1.63;;;;;;;28.06;40.56;96909.94;5077043;28;20021;-27
2023/09/04 08:06:22;;;;;;;2.90;1.75;;;;;;;28.11;40.85;96903.50;5084338;28;20081;-27
2023/09/04 08:08:47;;;;;;;2.00;1.50;;;;;;;28.17;40.58;96901.38;5079519;28;20043;-26
2023/09/04 08:11:12;;;;;;;2.85;1.63;;;;;;;28.04;41.04;96892.97;5080799;28;20394;-26
2023/09/04 08:13:39;;;;;;;2.90;1.70;;;;;;;28.14;40.26;96893.31;5085425;28;20012;-28
2023/09/04 08:16:04;;;;;;;2.05;1.50;;;;;;;28.29;40.55;96901.19;5084874;28;20505;-27
2023/09/04 08:18:30;;;;;;;2.95;1.35;;;;;;;28.31;40.41;96893.81;5081472;28;20048;-27
2023/09/04 08:20:55;;;;;;;2.22;1.52;;;;;;;28.31;40.27;96893.06;5081125;28;20078;-27
2023/09/04 08:23:20;;;;;;;1.50;1.30;;;;;;;28.38;40.02;96895.19;5081453;28;20428;-26
2023/09/04 08:25:46;;;;;;;2.60;1.45;;;;;;;28.46;39.77;96896.06;5078037;28;20012;-27
2023/09/04 08:28:11;;;;;;;1.55;1.25;;;;;;;28.47;39.28;96897.56;5085103;28;20024;-27
2023/09/04 08:30:37;;;;;;;3.30;1.40;;;;;;;28.42;39.73;96901.97;5081736;28;20024;-27
2023/09/04 08:33:02;;;;;;;3.75;1.63;;;;;;;28.46;39.63;96904.44;5078950;28;20438;-27
2023/09/04 08:35:29;;;;;;;3.13;1.30;;;;;;;28.38;39.59;96903.56;5083730;28;20031;-27
2023/09/04 08:37:56;;;;;;;2.58;1.58;;;;;;;28.54;39.04;96894.16;5088829;28;20474;-27
2023/09/04 08:40:22;;;;;;;1.77;1.42;;;;;;;28.28;38.97;96894.13;5081219;28;20089;-27
2023/09/04 08:42:49;;;;;;;2.35;1.30;;;;;;;28.35;39.40;96899.06;5081035;28;20024;-27
2023/09/04 08:45:17;;;;;;;3.90;1.67;;;;;;;28.42;38.68;96901.22;5081159;28;20040;-28
2023/09/04 08:47:43;;;;;;;2.97;1.35;;;;;;;28.62;38.75;96891.47;5080892;28;20020;-26
2023/09/04 08:50:11;;;;;;;1.80;1.30;;;;;;;28.51;38.64;96895.97;5084065;28;20027;-27
2023/09/04 08:52:38;;;;;;;3.58;1.38;;;;;;;28.55;38.93;96895.66;5084429;28;20046;-26
2023/09/04 08:55:05;;;;;;;2.15;1.50;;;;;;;28.59;39.13;96901.66;5075923;28;20020;-27
2023/09/04 08:57:33;;;;;;;3.70;1.83;;;;;;;28.48;39.01;96896.28;5084488;28;20045;-26
2023/09/04 08:59:59;;;;;;;3.63;1.63;;;;;;;28.67;38.30;96891.38;5082381;28;20577;-27
2023/09/04 09:02:24;;;;;;;2.50;1.40;;;;;;;28.63;38.67;96884.59;5080561;28;20056;-26
2023/09/04 09:04:52;;;;;;;2.67;1.52;;;;;;;28.56;39.07;96897.16;5073225;28;20064;-27
2023/09/04 09:07:20;;;;;;;3.47;1.30;;;;;;;28.69;39.00;96911.09;5080991;28;20550;-27
2023/09/04 09:09:49;;;;;;;2.78;1.20;;;;;;;28.68;39.16;96876.13;5078806;28;20024;-26
2023/09/04 09:12:15;;;;;;;4.10;1.70;;;;;;;28.61;39.20;96887.91;5081782;28;20065;-27
2023/09/04 09:14:40;;;;;;;2.75;1.25;;;;;;;28.60;39.48;96881.56;5077040;28;20049;-27
2023/09/04 09:17:08;;;;;;;2.17;1.60;;;;;;;28.55;39.43;96885.25;5083482;28;20119;-27
2023/09/04 09:19:34;;;;;;;3.35;1.60;;;;;;;28.81;39.14;96889.31;5076263;28;20035;-27
2023/09/04 09:22:12;;;;;;;3.25;1.40;;;;;;;28.71;39.07;96891.78;5078026;28;20023;-27
2023/09/04 09:24:53;;;;;;;1.73;1.40;;;;;;;28.76;38.74;96876.97;5076299;28;20039;-27
2023/09/04 09:27:21;;;;;;;2.38;1.40;;;;;;;28.73;39.18;96880.81;5075985;28;20074;-27
2023/09/04 09:29:48;;;;;;;3.08;1.55;;;;;;;28.68;39.36;96880.94;5083241;28;20103;-27
2023/09/04 09:32:16;;;;;;;6.40;1.50;;;;;;;28.68;39.53;96883.75;5077367;28;20102;-26
2023/09/04 09:34:41;;;;;;;4.22;1.77;;;;;;;28.56;39.57;96880.41;5081875;28;20059;-28
2023/09/04 09:37:08;;;;;;;2.83;1.50;;;;;;;28.75;39.60;96878.25;5079377;28;20373;-27
2023/09/04 09:39:34;;;;;;;4.70;1.98;;;;;;;28.82;39.41;96880.41;5087846;28;20031;-27
2023/09/04 09:42:01;;;;;;;1.88;1.50;;;;;;;28.86;39.60;96885.69;5080073;28;20511;-27
2023/09/04 09:44:34;;;;;;;2.35;1.80;;;;;;;28.85;39.70;96875.78;5080235;28;20024;-27
2023/09/04 09:47:00;;;;;;;3.63;1.60;;;;;;;28.81;39.94;96872.56;5082986;28;20020;-27
2023/09/04 09:49:26;;;;;;;3.92;1.60;;;;;;;28.81;39.89;96869.78;5077850;28;20454;-27
2023/09/04 09:51:54;;;;;;;3.30;1.85;;;;;;;28.79;40.10;96875.94;5081008;28;20031;-27
2023/09/04 09:54:39;;;;;;;4.28;1.80;;;;;;;28.87;39.80;96876.75;5082831;28;20023;-27
2023/09/04 09:57:09;;;;;;;6.13;1.58;;;;;;;28.90;39.76;96875.69;5081160;28;20028;-28
2023/09/04 09:59:43;;;;;;;2.72;1.60;;;;;;;28.85;40.01;96868.16;5080294;28;20016;-27
2023/09/04 10:02:13;;;;;;;2.35;1.48;;;;;;;28.94;39.96;96866.97;5080060;28;20515;-27
2023/09/04 10:04:38;;;;;;;2.17;1.50;;;;;;;28.85;39.89;96867.41;5079037;28;20024;-28
2023/09/04 10:07:04;;;;;;;7.10;1.70;;;;;;;28.94;39.57;96872.56;5080194;28;20023;-26
2023/09/04 10:09:46;;;;;;;2.40;1.58;;;;;;;28.98;39.56;96873.00;5087297;28;20074;-26
2023/09/04 10:12:29;;;;;;;3.17;1.63;;;;;;;28.73;39.90;96866.88;5079794;28;20546;-27
2023/09/04 10:14:57;;;;;;;3.30;1.60;;;;;;;28.80;39.10;96862.72;5084510;28;20027;-27
2023/09/04 10:17:35;;;;;;;3.45;1.52;;;;;;;28.84;39.13;96852.72;5081101;28;20047;-28
2023/09/04 10:20:04;;;;;;;2.83;1.58;;;;;;;28.67;39.09;96863.44;5084930;28;20025;-27
2023/09/04 10:23:02;;;;;;;6.90;1.80;;;;;;;29.00;38.56;96856.44;5080159;28;20024;-27
2023/09/04 10:25:41;;;;;;;5.10;1.70;;;;;;;28.95;38.14;96848.94;5081032;28;20024;-27
2023/09/04 10:28:09;;;;;;;2.92;1.95;;;;;;;28.94;38.16;96839.81;5082238;28;20036;-27
2023/09/04 10:30:38;;;;;;;2.55;1.40;;;;;;;28.89;38.45;96862.28;5086146;28;20103;-27
2023/09/04 10:33:06;;;;;;;4.75;1.90;;;;;;;28.84;38.36;96838.00;5082264;28;20027;-26
2023/09/04 10:35:32;;;;;;;3.05;1.58;;;;;;;28.94;38.01;96831.44;5083877;28;20027;-27
2023/09/04 10:37:58;;;;;;;3.78;1.90;;;;;;;28.98;37.33;96833.16;5079242;28;20024;-27
2023/09/04 10:40:23;;;;;;;6.63;2.10;;;;;;;28.98;36.46;96830.34;5087408;28;20064;-27
2023/09/04 10:42:49;;;;;;;10.55;1.98;;;;;;;28.85;37.18;96826.31;5090564;28;20024;-28
2023/09/04 10:45:18;;;;;;;3.38;1.75;;;;;;;28.99;36.77;96826.28;5083397;28;20067;-26
2023/09/04 10:47:51;;;;;;;2.85;1.63;;;;;;;28.95;36.84;96821.75;5076344;28;20454;-27
2023/09/04 10:50:33;;;;;;;3.45;1.50;;;;;;;29.12;36.37;96820.66;5082940;28;20028;-27
2023/09/04 10:53:01;;;;;;;3.33;1.58;;;;;;;29.09;36.36;96816.16;5084660;28;20040;-27
2023/09/04 10:55:28;;;;;;;1.92;1.50;;;;;;;29.02;36.44;96816.81;5081806;28;20103;-27
2023/09/04 10:57:55;;;;;;;3.63;1.52;;;;;;;29.05;35.93;96812.94;5082894;28;20031;-27
2023/09/04 11:00:37;;;;;;;2.15;1.55;;;;;;;29.00;36.41;96813.81;5079449;28;20081;-27
2023/09/04 11:03:15;;;;;;;4.17;1.83;;;;;;;29.04;35.82;96819.81;5077453;28;20028;-27
2023/09/04 11:06:03;;;;;;;4.13;1.35;;;;;;;29.01;35.93;96809.72;5082508;28;20277;-26
2023/09/04 11:08:33;;;;;;;2.83;1.40;;;;;;;29.12;35.42;96812.28;5086173;28;20109;-27
2023/09/04 11:11:03;;;;;;;3.42;1.50;;;;;;;29.04;35.74;96817.03;5086306;28;20024;-26
2023/09/04 11:13:29;;;;;;;2.15;1.48;;;;;;;29.21;34.69;96820.19;5086112;28;20088;-27
2023/09/04 11:15:56;;;;;;;4.60;1.73;;;;;;;29.13;35.04;96824.94;5080424;28;20470;-27
2023/09/04 11:18:22;;;;;;;2.58;1.50;;;;;;;29.05;34.88;96813.72;5082291;28;20028;-27
2023/09/04 11:20:54;;;;;;;2.10;1.35;;;;;;;29.11;35.10;96816.34;5082554;28;20389;-26
2023/09/04 11:23:19;;;;;;;2.88;1.65;;;;;;;29.07;35.51;96816.69;5082082;28;20473;-27
2023/09/04 11:25:46;;;;;;;1.80;1.60;;;;;;;29.03;34.87;96816.28;5083120;28;20037;-27
2023/09/04 11:28:12;;;;;;;3.72;1.83;;;;;;;29.09;35.35;96816.91;5081847;28;20046;-27
2023/09/04 11:30:38;;;;;;;2.55;1.92;;;;;;;29.18;34.71;96824.06;5083548;28;20024;-26
2023/09/04 11:33:04;;;;;;;6.43;1.90;;;;;;;29.15;34.90;96822.38;5079987;28;20028;-27